Time;durP1;ratioP1;P1;durP2;ratioP2;P2;SDS_P1;SDS_P2;PMS_P1;PMS_P2;Temp;Humidity;BMP_temperature;BMP_pressure;BME280_temperature;BME280_humidity;BME280_pressure;Samples;Min_cycle;Max_cycle;Signal;HPM_P1;HPM_P2
2022/10/25 00:01:29;;;;;;;3.15;1.10;;;13.50;10.00;;;;;;5035357;28;20210;-80
2022/10/25 00:03:55;;;;;;;3.35;1.02;;;13.70;1.00;;;;;;5036314;28;20210;-81
2022/10/25 00:06:21;;;;;;;2.42;0.90;;;13.70;1.00;;;;;;5035662;28;20308;-81
2022/10/25 00:08:47;;;;;;;2.75;0.82;;;13.60;2.60;;;;;;5035780;28;20302;-81
2022/10/25 00:11:32;;;;;;;4.57;0.88;;;13.60;20.70;;;;;;5035271;28;20179;-79
2022/10/25 00:14:00;;;;;;;4.65;0.90;;;13.50;35.00;;;;;;5036730;28;20201;-80
2022/10/25 00:16:28;;;;;;;3.65;0.82;;;13.50;41.30;;;;;;5035203;28;20182;-81
2022/10/25 00:18:55;;;;;;;2.63;0.85;;;13.50;68.30;;;;;;5036234;28;20187;-81
2022/10/25 00:21:21;;;;;;;3.70;0.70;;;13.50;50.20;;;;;;5046493;28;20202;-81
2022/10/25 00:23:47;;;;;;;3.17;0.88;;;13.40;59.50;;;;;;5035074;28;20190;-81
2022/10/25 00:26:12;;;;;;;2.85;0.68;;;13.20;68.40;;;;;;5037953;28;20272;-81
2022/10/25 00:28:39;;;;;;;2.72;0.80;;;13.30;69.30;;;;;;5034837;28;20179;-81
2022/10/25 00:31:10;;;;;;;1.77;0.50;;;13.20;81.70;;;;;;5037918;28;20186;-81
2022/10/25 00:33:37;;;;;;;4.18;1.13;;;13.30;58.00;;;;;;5035861;28;20235;-81
2022/10/25 00:36:08;;;;;;;3.67;1.13;;;13.20;49.40;;;;;;5034965;28;20804;-81
2022/10/25 00:38:34;;;;;;;1.38;0.50;;;13.20;49.00;;;;;;5036331;28;20184;-80
2022/10/25 00:41:00;;;;;;;1.65;0.60;;;13.30;61.10;;;;;;5036732;28;20178;-81
2022/10/25 00:43:36;;;;;;;0.77;0.50;;;13.20;47.90;;;;;;5034428;28;20179;-81
2022/10/25 00:46:17;;;;;;;2.70;0.60;;;13.20;49.30;;;;;;5035325;28;20746;-81
2022/10/25 00:48:52;;;;;;;1.90;0.80;;;13.30;26.80;;;;;;5036085;28;20178;-81
2022/10/25 00:51:20;;;;;;;1.60;0.70;;;13.20;31.50;;;;;;5033691;28;20181;-81
2022/10/25 00:53:46;;;;;;;3.50;0.70;;;13.20;22.70;;;;;;5034527;28;20589;-81
2022/10/25 00:56:18;;;;;;;2.20;0.73;;;13.30;18.30;;;;;;5036104;28;20372;-81
2022/10/25 00:58:52;;;;;;;1.73;0.60;;;13.30;21.90;;;;;;5036078;28;20171;-81
2022/10/25 01:01:17;;;;;;;0.70;0.50;;;13.30;21.30;;;;;;5034222;28;20191;-81
2022/10/25 01:03:46;;;;;;;1.98;0.50;;;13.30;20.10;;;;;;5035807;28;20189;-82
2022/10/25 01:06:19;;;;;;;1.10;0.60;;;13.20;26.50;;;;;;5036123;28;20392;-81
2022/10/25 01:08:47;;;;;;;1.15;0.40;;;13.20;34.70;;;;;;5034815;28;20289;-81
2022/10/25 01:11:12;;;;;;;1.67;0.70;;;13.20;49.20;;;;;;5035830;28;20218;-81
2022/10/25 01:13:38;;;;;;;2.08;0.50;;;13.20;49.20;;;;;;5034879;28;20186;-81
2022/10/25 01:16:17;;;;;;;1.50;0.50;;;13.20;77.20;;;;;;5035899;28;20666;-81
2022/10/25 01:19:04;;;;;;;1.48;0.70;;;13.10;49.70;;;;;;5035894;28;20232;-81
2022/10/25 01:21:35;;;;;;;1.02;0.50;;;13.10;56.80;;;;;;5036831;28;21171;-82
2022/10/25 01:24:08;;;;;;;2.80;0.60;;;13.10;64.50;;;;;;5036627;28;20186;-82
2022/10/25 01:27:04;;;;;;;1.35;0.55;;;13.10;83.10;;;;;;5035063;28;20206;-81
2022/10/25 01:29:58;;;;;;;1.70;0.80;;;13.00;81.70;;;;;;5034769;28;20856;-81
2022/10/25 01:32:31;;;;;;;1.33;0.60;;;12.90;99.60;;;;;;5035540;28;20171;-81
2022/10/25 01:35:17;;;;;;;2.50;0.73;;;12.90;99.90;;;;;;5034961;28;20233;-81
2022/10/25 01:37:57;;;;;;;0.88;0.60;;;12.90;99.90;;;;;;5034979;28;20653;-81
2022/10/25 01:41:00;;;;;;;1.92;0.80;;;13.00;99.90;;;;;;5034697;28;20192;-81
2022/10/25 01:43:29;;;;;;;1.73;0.60;;;13.00;99.90;;;;;;5033457;28;20193;-81
2022/10/25 01:45:57;;;;;;;1.70;0.60;;;13.00;99.90;;;;;;5033776;28;20202;-81
2022/10/25 01:48:32;;;;;;;3.33;0.93;;;13.00;99.90;;;;;;5036356;28;20178;-81
2022/10/25 01:51:07;;;;;;;3.47;1.80;;;13.00;99.90;;;;;;5035374;28;20245;-81
2022/10/25 01:53:41;;;;;;;3.67;2.30;;;13.00;99.90;;;;;;5059216;22;20263;-81
2022/10/25 01:56:07;;;;;;;2.58;1.70;;;13.00;99.90;;;;;;5036207;28;20701;-80
2022/10/25 01:58:56;;;;;;;6.22;3.00;;;13.10;99.90;;;;;;5034740;28;20182;-80
2022/10/25 02:01:42;;;;;;;9.02;4.57;;;13.00;99.90;;;;;;5034458;28;20187;-80
2022/10/25 02:04:22;;;;;;;9.95;4.97;;;13.10;99.90;;;;;;5035478;28;20229;-80
2022/10/25 02:07:27;;;;;;;10.52;5.22;;;13.00;99.90;;;;;;5038191;28;20228;-81
2022/10/25 02:09:52;;;;;;;11.63;5.10;;;13.00;99.90;;;;;;5017080;28;20222;-81
2022/10/25 02:12:29;;;;;;;11.93;6.00;;;13.20;99.90;;;;;;5036546;28;20521;-82
2022/10/25 02:15:29;;;;;;;6.40;3.08;;;13.00;99.90;;;;;;5037106;28;20198;-80
2022/10/25 02:17:59;;;;;;;12.15;4.85;;;13.10;99.90;;;;;;5039532;28;20690;-80
2022/10/25 02:20:30;;;;;;;9.30;3.22;;;13.10;99.90;;;;;;5040073;28;20653;-82
2022/10/25 02:22:57;;;;;;;10.27;4.72;;;13.10;99.90;;;;;;5039380;28;20217;-82
2022/10/25 02:25:23;;;;;;;15.05;6.70;;;13.10;99.90;;;;;;5040388;28;20206;-82
2022/10/25 02:27:51;;;;;;;12.68;5.18;;;13.00;99.90;;;;;;5023761;28;20236;-82
2022/10/25 02:30:17;;;;;;;13.82;6.13;;;13.00;99.90;;;;;;5038186;28;20410;-82
2022/10/25 02:32:44;;;;;;;10.23;4.40;;;13.00;99.90;;;;;;5036643;28;20183;-81
2022/10/25 02:35:15;;;;;;;10.52;4.55;;;12.90;99.90;;;;;;5036512;28;20203;-81
2022/10/25 02:37:40;;;;;;;8.90;3.92;;;13.20;99.90;;;;;;5039497;28;20190;-82
2022/10/25 02:40:07;;;;;;;6.82;3.03;;;12.90;99.90;;;;;;5040502;28;20190;-82
2022/10/25 02:42:33;;;;;;;17.92;7.47;;;12.90;99.90;;;;;;5040980;28;20554;-81
2022/10/25 02:44:58;;;;;;;8.05;3.90;;;12.90;99.90;;;;;;5039731;28;20206;-82
2022/10/25 02:47:24;;;;;;;13.35;5.90;;;12.90;99.90;;;;;;5040452;28;20198;-82
2022/10/25 02:49:50;;;;;;;4.72;2.00;;;12.90;1.00;;;;;;5040991;28;20298;-82
2022/10/25 02:52:15;;;;;;;14.93;6.82;;;13.10;1.00;;;;;;5040045;28;20182;-82
2022/10/25 02:54:41;;;;;;;12.70;6.43;;;12.90;1.00;;;;;;5041889;28;20592;-81
2022/10/25 02:57:06;;;;;;;11.00;5.13;;;13.10;99.90;;;;;;5040391;28;20204;-81
2022/10/25 02:59:32;;;;;;;6.95;3.40;;;12.90;99.90;;;;;;5041490;28;20203;-82
2022/10/25 03:01:57;;;;;;;7.97;3.72;;;12.90;1.00;;;;;;5040944;28;20193;-82
2022/10/25 03:04:23;;;;;;;4.85;2.42;;;13.00;1.00;;;;;;5040006;28;20221;-82
2022/10/25 03:06:49;;;;;;;5.55;2.58;;;12.30;1.00;;;;;;5039211;28;20202;-80
2022/10/25 03:09:14;;;;;;;4.72;1.60;;;12.80;1.00;;;;;;5039456;28;20182;-82
2022/10/25 03:11:40;;;;;;;5.95;1.30;;;12.90;1.00;;;;;;5040625;28;20198;-82
2022/10/25 03:14:06;;;;;;;2.97;1.58;;;12.80;1.00;;;;;;5038728;28;20209;-82
2022/10/25 03:16:31;;;;;;;3.88;1.83;;;12.70;1.00;;;;;;5043867;28;20191;-80
2022/10/25 03:18:57;;;;;;;4.10;1.70;;;12.60;1.00;;;;;;5026411;28;20190;-81
2022/10/25 03:21:23;;;;;;;2.55;1.33;;;12.50;1.00;;;;;;5040560;28;20245;-80
2022/10/25 03:23:49;;;;;;;3.20;1.08;;;12.60;1.00;;;;;;5044688;28;20663;-82
2022/10/25 03:26:15;;;;;;;4.82;1.23;;;12.50;1.00;;;;;;5047162;28;20693;-81
2022/10/25 03:28:40;;;;;;;3.45;1.40;;;12.50;1.00;;;;;;5046353;28;20241;-80
2022/10/25 03:31:12;;;;;;;4.30;1.40;;;12.60;1.00;;;;;;5045881;28;20783;-80
2022/10/25 03:33:37;;;;;;;4.50;1.48;;;12.60;1.00;;;;;;5044993;28;20186;-81
2022/10/25 03:36:04;;;;;;;6.07;1.48;;;12.60;1.00;;;;;;5047144;28;20397;-82
2022/10/25 03:38:29;;;;;;;3.10;0.95;;;12.60;1.00;;;;;;5045842;28;20695;-80
2022/10/25 03:40:55;;;;;;;7.28;1.40;;;12.60;1.00;;;;;;5043779;28;20221;-81
2022/10/25 03:43:21;;;;;;;7.95;1.92;;;12.70;1.00;;;;;;5041770;28;20485;-81
2022/10/25 03:45:46;;;;;;;4.57;1.40;;;12.90;1.00;;;;;;5042932;28;20264;-80
2022/10/25 03:48:12;;;;;;;4.60;1.80;;;12.80;1.00;;;;;;5041587;28;20214;-81
2022/10/25 03:50:38;;;;;;;5.38;1.80;;;12.80;1.00;;;;;;5041740;28;20554;-81
2022/10/25 03:53:05;;;;;;;6.35;2.00;;;12.90;1.00;;;;;;5041884;28;20563;-83
2022/10/25 03:55:31;;;;;;;5.28;1.65;;;12.80;1.00;;;;;;5044916;28;20238;-81
2022/10/25 03:57:57;;;;;;;4.75;1.50;;;13.00;1.00;;;;;;5043026;28;20179;-83
2022/10/25 04:00:23;;;;;;;9.10;2.08;;;12.80;1.00;;;;;;5045516;28;20185;-83
2022/10/25 04:02:57;;;;;;;5.00;1.50;;;12.80;1.00;;;;;;5027144;28;20689;-82
2022/10/25 04:05:22;;;;;;;7.20;1.80;;;12.80;74.20;;;;;;5045764;28;20201;-81
2022/10/25 04:07:48;;;;;;;7.35;2.15;;;12.80;99.90;;;;;;5043901;28;20203;-83
2022/10/25 04:10:14;;;;;;;5.05;2.10;;;12.70;98.20;;;;;;5043104;28;20690;-83
2022/10/25 04:12:40;;;;;;;8.43;3.85;;;12.60;99.90;;;;;;5044695;28;20174;-82
2022/10/25 04:15:06;;;;;;;9.90;3.35;;;12.60;99.90;;;;;;5042917;28;20646;-83
2022/10/25 04:17:31;;;;;;;5.75;3.10;;;12.70;99.90;;;;;;5045296;28;20192;-82
2022/10/25 04:19:57;;;;;;;6.45;2.95;;;12.60;99.90;;;;;;5043028;28;20214;-82
2022/10/25 04:22:23;;;;;;;7.95;2.30;;;12.80;99.90;;;;;;5043931;28;20285;-81
2022/10/25 04:24:48;;;;;;;8.73;4.30;;;12.60;99.90;;;;;;5042712;28;20209;-81
2022/10/25 04:27:14;;;;;;;10.43;4.82;;;12.80;99.90;;;;;;5043112;28;20202;-83
2022/10/25 04:29:39;;;;;;;11.75;5.43;;;12.70;99.90;;;;;;5042017;28;20185;-82
2022/10/25 04:32:05;;;;;;;17.90;7.15;;;12.80;99.90;;;;;;5037698;28;20183;-81
2022/10/25 04:34:31;;;;;;;12.30;5.93;;;12.80;99.90;;;;;;5037476;28;20211;-81
2022/10/25 04:36:56;;;;;;;13.98;7.32;;;12.90;1.00;;;;;;5038258;28;20290;-82
2022/10/25 04:39:23;;;;;;;10.85;7.30;;;12.70;1.00;;;;;;5034405;28;20183;-81
2022/10/25 04:41:48;;;;;;;10.43;6.30;;;12.80;1.00;;;;;;5038714;28;20182;-81
2022/10/25 04:44:14;;;;;;;8.75;5.55;;;12.90;1.00;;;;;;5036288;28;20210;-81
2022/10/25 04:46:39;;;;;;;9.52;5.95;;;12.80;1.00;;;;;;5036044;28;20232;-81
2022/10/25 04:49:05;;;;;;;10.10;5.53;;;12.80;1.00;;;;;;5052473;28;20213;-80
2022/10/25 04:51:31;;;;;;;13.07;6.10;;;12.80;1.00;;;;;;5035649;28;20205;-83
2022/10/25 04:53:56;;;;;;;8.90;5.20;;;12.90;1.00;;;;;;5036774;28;20201;-81
2022/10/25 04:56:22;;;;;;;7.13;3.10;;;12.90;1.00;;;;;;5037734;28;20194;-80
2022/10/25 04:58:48;;;;;;;5.63;2.05;;;12.90;1.00;;;;;;5037604;28;20191;-80
2022/10/25 05:01:16;;;;;;;6.60;2.53;;;12.90;1.00;;;;;;5034113;28;20597;-81
2022/10/25 05:03:42;;;;;;;5.70;2.50;;;12.90;1.00;;;;;;5037559;28;20182;-81
2022/10/25 05:06:13;;;;;;;11.35;2.95;;;12.80;1.00;;;;;;5039786;28;20657;-82
2022/10/25 05:08:40;;;;;;;9.80;2.05;;;12.80;1.00;;;;;;5035993;28;20186;-84
2022/10/25 05:11:07;;;;;;;6.75;2.05;;;12.90;1.00;;;;;;5039418;28;20198;-84
2022/10/25 05:13:35;;;;;;;5.72;2.25;;;12.80;1.00;;;;;;5037105;28;20274;-81
2022/10/25 05:16:01;;;;;;;3.55;1.55;;;12.70;1.00;;;;;;5040730;28;20205;-82
2022/10/25 05:18:27;;;;;;;6.75;2.10;;;12.70;1.00;;;;;;5039357;28;20607;-84
2022/10/25 05:20:54;;;;;;;4.65;1.65;;;12.70;1.00;;;;;;5037871;28;20179;-82
2022/10/25 05:23:20;;;;;;;4.60;1.60;;;12.90;1.00;;;;;;5035000;28;20186;-82
2022/10/25 05:25:46;;;;;;;4.28;1.67;;;12.70;1.00;;;;;;5036879;28;20198;-82
2022/10/25 05:28:12;;;;;;;6.40;2.13;;;12.80;1.00;;;;;;5036524;28;20253;-83
2022/10/25 05:30:42;;;;;;;6.32;2.08;;;12.80;1.00;;;;;;5035791;28;20662;-81
2022/10/25 05:33:08;;;;;;;5.55;1.52;;;12.80;1.00;;;;;;5038096;28;20199;-81
2022/10/25 05:35:34;;;;;;;5.63;2.03;;;12.90;1.00;;;;;;5037096;28;20213;-79
2022/10/25 05:38:01;;;;;;;7.20;2.13;;;12.80;1.00;;;;;;5036274;28;20183;-82
2022/10/25 05:40:27;;;;;;;5.85;1.60;;;12.90;1.00;;;;;;5037745;28;20187;-82
2022/10/25 05:42:53;;;;;;;9.30;1.77;;;12.90;1.00;;;;;;5037808;28;20221;-84
2022/10/25 05:45:18;;;;;;;8.18;1.85;;;12.90;1.00;;;;;;5040239;28;20241;-83
2022/10/25 05:47:44;;;;;;;5.95;1.88;;;12.90;1.00;;;;;;5039227;28;20225;-81
2022/10/25 05:50:10;;;;;;;6.55;2.08;;;12.90;1.00;;;;;;5037319;28;20268;-84
2022/10/25 05:52:36;;;;;;;6.28;1.90;;;12.90;1.00;;;;;;5041865;28;20843;-84
2022/10/25 05:55:01;;;;;;;7.93;2.10;;;12.80;1.00;;;;;;5038061;28;20364;-83
2022/10/25 05:57:27;;;;;;;7.38;1.70;;;12.80;1.00;;;;;;5038322;28;20269;-81
2022/10/25 05:59:53;;;;;;;5.05;2.08;;;12.80;1.00;;;;;;5038336;28;20175;-83
2022/10/25 06:02:18;;;;;;;7.80;1.85;;;12.80;1.00;;;;;;5036460;28;20593;-81
2022/10/25 06:04:44;;;;;;;7.63;2.00;;;12.90;1.00;;;;;;5038399;28;20203;-84
2022/10/25 06:07:09;;;;;;;3.45;2.47;;;12.90;1.00;;;;;;5036971;28;20194;-82
2022/10/25 06:09:35;;;;;;;12.93;5.13;;;12.80;1.00;;;;;;5034695;28;20677;-82
2022/10/25 06:12:00;;;;;;;11.15;5.38;;;13.10;1.00;;;;;;5036465;28;20176;-82
2022/10/25 06:14:26;;;;;;;8.55;3.75;;;12.80;1.00;;;;;;5034698;28;20200;-80
2022/10/25 06:16:52;;;;;;;9.88;4.05;;;12.90;1.00;;;;;;5035376;28;20188;-82
2022/10/25 06:19:17;;;;;;;17.00;8.68;;;12.80;1.00;;;;;;5034901;28;20186;-83
2022/10/25 06:21:43;;;;;;;8.18;3.75;;;12.90;1.00;;;;;;5033667;28;20595;-82
2022/10/25 06:24:09;;;;;;;17.25;8.60;;;13.10;1.00;;;;;;5034649;28;20190;-82
2022/10/25 06:26:34;;;;;;;15.93;7.55;;;12.90;1.00;;;;;;5035041;28;20815;-81
2022/10/25 06:29:03;;;;;;;15.55;7.65;;;12.90;1.00;;;;;;5033700;28;20213;-79
2022/10/25 06:31:29;;;;;;;16.88;8.38;;;12.90;1.00;;;;;;5052377;28;20198;-82
2022/10/25 06:33:55;;;;;;;19.63;9.23;;;13.20;1.00;;;;;;5035952;28;20167;-81
2022/10/25 06:36:22;;;;;;;19.13;9.93;;;12.90;1.00;;;;;;5034266;28;20276;-79
2022/10/25 06:38:49;;;;;;;19.90;9.88;;;12.90;1.00;;;;;;5035815;28;20593;-82
2022/10/25 06:41:19;;;;;;;22.30;11.02;;;13.00;1.00;;;;;;5036133;28;20190;-83
2022/10/25 06:43:45;;;;;;;14.77;8.27;;;12.90;1.00;;;;;;5034704;28;20189;-83
2022/10/25 06:46:24;;;;;;;15.55;8.27;;;12.90;1.00;;;;;;5036658;28;20213;-85
2022/10/25 06:48:52;;;;;;;15.63;8.15;;;12.90;1.00;;;;;;5052432;28;20723;-86
2022/10/25 06:51:18;;;;;;;14.38;8.07;;;12.90;1.00;;;;;;5039725;28;20196;-82
2022/10/25 06:53:43;;;;;;;10.52;5.82;;;13.00;1.00;;;;;;5040300;28;20195;-82
2022/10/25 06:56:11;;;;;;;9.07;4.93;;;13.00;1.00;;;;;;5051935;28;20205;-82
2022/10/25 06:58:37;;;;;;;10.45;6.45;;;13.00;1.00;;;;;;5036040;28;20197;-83
2022/10/25 07:01:07;;;;;;;9.68;4.13;;;13.50;1.00;;;;;;5038900;28;20731;-83
2022/10/25 07:03:36;;;;;;;7.43;3.25;;;13.00;1.00;;;;;;5036534;28;20186;-84
2022/10/25 07:06:38;;;;;;;8.48;3.42;;;13.40;1.00;;;;;;5041269;28;20203;-84
2022/10/25 07:09:04;;;;;;;7.90;3.00;;;13.00;1.00;;;;;;4993876;28;20205;-82
2022/10/25 07:11:31;;;;;;;5.70;2.03;;;13.10;1.00;;;;;;5037149;28;20186;-85
2022/10/25 07:13:59;;;;;;;6.50;2.38;;;13.30;99.90;;;;;;5037695;28;20179;-85
2022/10/25 07:16:25;;;;;;;4.55;1.75;;;13.30;99.90;;;;;;5038130;28;20182;-85
2022/10/25 07:18:52;;;;;;;6.57;2.10;;;13.20;99.90;;;;;;5036446;28;20187;-83
2022/10/25 07:21:21;;;;;;;5.80;2.17;;;13.40;99.90;;;;;;5036897;28;20269;-82
2022/10/25 07:23:49;;;;;;;3.78;2.08;;;13.40;99.90;;;;;;5036488;28;20233;-84
2022/10/25 07:26:21;;;;;;;5.35;1.80;;;13.40;99.90;;;;;;5035972;28;20213;-85
2022/10/25 07:28:48;;;;;;;8.13;2.17;;;13.40;99.90;;;;;;5036635;28;20198;-84
2022/10/25 07:31:17;;;;;;;4.45;1.77;;;13.50;99.90;;;;;;5036729;28;20643;-85
2022/10/25 07:33:43;;;;;;;4.55;1.70;;;13.60;99.90;;;;;;5037290;28;20270;-85
2022/10/25 07:36:08;;;;;;;5.65;1.50;;;13.70;99.90;;;;;;5028541;28;20639;-85
2022/10/25 07:38:35;;;;;;;3.67;1.70;;;13.50;99.90;;;;;;5031488;28;20182;-85
2022/10/25 07:41:01;;;;;;;5.43;2.00;;;13.50;99.90;;;;;;5031368;28;20605;-85
2022/10/25 07:43:28;;;;;;;2.97;1.52;;;13.50;99.90;;;;;;5023820;28;20183;-84
2022/10/25 07:45:54;;;;;;;6.43;1.60;;;13.50;99.90;;;;;;5035883;28;20603;-85
2022/10/25 07:48:20;;;;;;;7.93;1.85;;;13.50;99.90;;;;;;5053371;28;20294;-86
2022/10/25 07:50:45;;;;;;;4.60;1.73;;;13.60;99.90;;;;;;5037597;28;20732;-86
2022/10/25 07:53:11;;;;;;;6.32;1.83;;;13.70;99.90;;;;;;5039874;28;20253;-84
2022/10/25 07:55:37;;;;;;;4.45;1.65;;;13.70;99.90;;;;;;5039701;28;20281;-81
2022/10/25 07:58:04;;;;;;;5.35;2.00;;;13.90;99.90;;;;;;5022160;28;20244;-82
2022/10/25 08:00:30;;;;;;;6.03;1.80;;;13.70;99.90;;;;;;5037275;28;20182;-83
2022/10/25 08:02:56;;;;;;;4.53;1.67;;;13.80;99.90;;;;;;5040350;28;20252;-82
2022/10/25 08:05:22;;;;;;;3.45;1.50;;;13.80;99.90;;;;;;5037193;28;20207;-81
2022/10/25 08:07:49;;;;;;;4.97;1.60;;;13.70;99.90;;;;;;5039173;28;20207;-80
2022/10/25 08:10:16;;;;;;;3.67;1.63;;;14.00;99.90;;;;;;5037933;28;20182;-82
2022/10/25 08:12:41;;;;;;;5.30;1.40;;;13.80;99.90;;;;;;5052449;28;20616;-80
2022/10/25 08:15:07;;;;;;;5.05;1.90;;;14.00;99.90;;;;;;5037076;28;20305;-78
2022/10/25 08:17:33;;;;;;;4.88;1.67;;;13.80;99.90;;;;;;5032151;28;20190;-78
2022/10/25 08:19:59;;;;;;;5.35;1.88;;;13.70;99.90;;;;;;5033011;28;20624;-78
2022/10/25 08:22:24;;;;;;;5.68;1.88;;;13.70;99.90;;;;;;5036760;28;20198;-79
2022/10/25 08:24:50;;;;;;;4.75;2.17;;;13.80;99.90;;;;;;5039407;28;20393;-79
2022/10/25 08:27:15;;;;;;;7.15;2.10;;;13.90;99.90;;;;;;5037921;28;20218;-79
2022/10/25 08:29:42;;;;;;;5.55;1.73;;;13.80;99.90;;;;;;5037988;28;20209;-79
2022/10/25 08:32:08;;;;;;;5.97;1.80;;;14.00;99.90;;;;;;5038686;28;20183;-79
2022/10/25 08:34:33;;;;;;;7.18;2.05;;;13.90;99.90;;;;;;5037132;28;20201;-82
2022/10/25 08:36:59;;;;;;;10.77;4.63;;;13.90;99.90;;;;;;5038688;28;20261;-81
2022/10/25 08:39:25;;;;;;;8.02;2.72;;;13.90;99.90;;;;;;5037032;28;20204;-79
2022/10/25 08:41:54;;;;;;;9.88;4.13;;;13.90;99.90;;;;;;5038705;28;20216;-82
2022/10/25 08:44:54;;;;;;;8.07;3.80;;;14.10;99.90;;;;;;5040678;28;20304;-82
2022/10/25 08:47:28;;;;;;;12.50;7.05;;;14.10;99.90;;;;;;5037256;28;20206;-81
2022/10/25 08:50:29;;;;;;;11.00;4.57;;;14.20;99.90;;;;;;5053612;28;20182;-81
2022/10/25 08:53:02;;;;;;;8.82;3.40;;;14.20;99.90;;;;;;4990308;28;20198;-82
2022/10/25 08:55:37;;;;;;;8.75;3.47;;;14.20;92.80;;;;;;5036968;28;20220;-82
2022/10/25 08:58:11;;;;;;;11.43;5.40;;;14.40;97.10;;;;;;5038655;28;20545;-80
2022/10/25 09:00:41;;;;;;;10.38;3.25;;;14.60;73.70;;;;;;5037991;28;20186;-82
2022/10/25 09:03:16;;;;;;;4.78;2.08;;;14.80;72.50;;;;;;5054924;28;20194;-81
2022/10/25 09:06:08;;;;;;;8.35;3.42;;;15.00;32.30;;;;;;5035964;28;20202;-83
2022/10/25 09:08:58;;;;;;;21.60;5.40;;;15.10;20.70;;;;;;5035197;28;20237;-83
2022/10/25 09:11:38;;;;;;;9.68;4.65;;;15.10;6.10;;;;;;5033722;28;20186;-81
2022/10/25 09:14:35;;;;;;;10.13;3.78;;;15.00;6.90;;;;;;5035530;28;20361;-82
2022/10/25 09:17:19;;;;;;;9.57;3.95;;;15.00;30.40;;;;;;5039308;28;20219;-82
2022/10/25 09:20:01;;;;;;;9.02;4.22;;;15.00;29.20;;;;;;5025389;28;20189;-82
2022/10/25 09:22:49;;;;;;;12.07;6.35;;;15.10;24.50;;;;;;5030249;28;20186;-82
2022/10/25 09:25:25;;;;;;;7.13;3.90;;;15.20;15.90;;;;;;5030540;28;20218;-81
2022/10/25 09:27:57;;;;;;;5.63;3.65;;;15.30;3.60;;;;;;5037180;28;20344;-81
2022/10/25 09:30:23;;;;;;;5.30;2.50;;;15.20;1.00;;;;;;5045938;28;20572;-82
2022/10/25 09:32:56;;;;;;;8.13;2.90;;;15.20;10.20;;;;;;5038411;28;20205;-81
2022/10/25 09:35:54;;;;;;;6.15;2.75;;;15.20;1.00;;;;;;5037500;28;20285;-83
2022/10/25 09:38:25;;;;;;;3.90;2.35;;;15.20;16.70;;;;;;5017475;28;20213;-82
2022/10/25 09:41:27;;;;;;;4.97;2.45;;;15.20;1.00;;;;;;5034504;28;20517;-83
2022/10/25 09:44:09;;;;;;;3.47;2.15;;;15.30;8.70;;;;;;4996372;28;20278;-82
2022/10/25 09:46:43;;;;;;;3.53;1.88;;;15.50;1.00;;;;;;5030123;28;20481;-82
2022/10/25 09:49:26;;;;;;;6.10;1.75;;;15.50;1.00;;;;;;5028222;28;20193;-80
2022/10/25 09:52:11;;;;;;;6.47;2.30;;;15.40;1.00;;;;;;5031291;28;20174;-81
2022/10/25 09:54:44;;;;;;;2.92;1.83;;;15.30;1.00;;;;;;5029459;28;20260;-82
2022/10/25 09:57:09;;;;;;;3.85;1.55;;;15.10;1.00;;;;;;5032515;28;20191;-82
2022/10/25 09:59:35;;;;;;;2.28;1.70;;;15.00;1.00;;;;;;5028376;28;20256;-81
2022/10/25 10:02:00;;;;;;;4.40;1.70;;;15.20;1.00;;;;;;5026786;28;20250;-81
2022/10/25 10:04:33;;;;;;;4.57;2.03;;;15.10;1.00;;;;;;5035069;28;20222;-81
2022/10/25 10:07:07;;;;;;;3.00;1.70;;;15.00;1.00;;;;;;5026817;28;20286;-81
2022/10/25 10:09:35;;;;;;;4.28;1.85;;;15.00;1.00;;;;;;5031162;28;20281;-82
2022/10/25 10:12:06;;;;;;;4.32;1.70;;;15.00;1.00;;;;;;5028305;28;20723;-80
2022/10/25 10:14:53;;;;;;;3.67;1.88;;;15.00;1.00;;;;;;5026726;28;20608;-82
2022/10/25 10:17:19;;;;;;;3.67;1.80;;;15.00;1.00;;;;;;5017846;28;20182;-81
2022/10/25 10:20:10;;;;;;;6.10;1.98;;;15.10;1.00;;;;;;5029859;28;20213;-81
2022/10/25 10:22:56;;;;;;;3.67;1.80;;;15.10;1.00;;;;;;5031714;28;20219;-81
2022/10/25 10:25:26;;;;;;;5.15;1.98;;;15.20;1.00;;;;;;5026946;28;20292;-81
2022/10/25 10:27:54;;;;;;;5.10;2.00;;;15.30;1.00;;;;;;5029218;28;20194;-81
2022/10/25 10:30:30;;;;;;;3.80;2.10;;;15.40;1.00;;;;;;5027610;28;20182;-81
2022/10/25 10:33:01;;;;;;;5.30;1.73;;;15.40;1.00;;;;;;5035333;28;20169;-81
2022/10/25 10:35:35;;;;;;;6.22;1.98;;;15.40;1.00;;;;;;5032713;28;20225;-81
2022/10/25 10:38:22;;;;;;;5.70;1.63;;;15.40;1.00;;;;;;5034799;28;20177;-80
2022/10/25 10:40:50;;;;;;;4.85;1.98;;;15.40;1.00;;;;;;5048636;28;20185;-80
2022/10/25 10:43:32;;;;;;;6.05;2.50;;;15.50;1.00;;;;;;5035214;28;20190;-80
2022/10/25 10:46:06;;;;;;;4.55;1.80;;;15.50;1.00;;;;;;5034122;28;20218;-81
2022/10/25 10:48:35;;;;;;;2.60;1.65;;;15.70;1.00;;;;;;5033346;28;20202;-79
2022/10/25 10:51:02;;;;;;;5.90;2.45;;;16.00;1.00;;;;;;5034850;28;20207;-80
2022/10/25 10:53:31;;;;;;;6.13;3.65;;;16.00;1.00;;;;;;5035257;28;20307;-81
2022/10/25 10:56:04;;;;;;;9.90;5.72;;;16.20;1.00;;;;;;5032830;28;20758;-83
2022/10/25 10:58:35;;;;;;;12.10;6.85;;;16.40;1.00;;;;;;5049474;28;20654;-84
2022/10/25 11:01:05;;;;;;;9.68;6.60;;;16.50;1.00;;;;;;5033505;28;20191;-79
2022/10/25 11:03:40;;;;;;;7.10;3.97;;;16.60;1.00;;;;;;5032130;28;20220;-79
2022/10/25 11:06:15;;;;;;;5.22;3.75;;;16.50;1.00;;;;;;5033557;28;20219;-79
2022/10/25 11:08:42;;;;;;;7.32;4.40;;;16.60;1.00;;;;;;5033789;28;20185;-79
2022/10/25 11:11:16;;;;;;;7.30;4.80;;;16.50;1.00;;;;;;5034873;28;20209;-78
2022/10/25 11:13:56;;;;;;;5.78;2.85;;;16.40;1.00;;;;;;5034745;28;20178;-78
2022/10/25 11:16:51;;;;;;;8.48;4.35;;;16.40;1.00;;;;;;5034037;28;20623;-78
2022/10/25 11:19:29;;;;;;;7.15;4.80;;;16.60;1.00;;;;;;5031818;28;20197;-79
2022/10/25 11:22:07;;;;;;;4.68;3.17;;;16.70;1.00;;;;;;5034660;28;20202;-79
2022/10/25 11:24:40;;;;;;;5.75;3.65;;;16.70;1.00;;;;;;5038045;28;20208;-80
2022/10/25 11:27:19;;;;;;;5.25;3.92;;;16.80;1.00;;;;;;5035855;28;20785;-79
2022/10/25 11:30:08;;;;;;;4.88;3.53;;;16.70;1.00;;;;;;5036166;28;20179;-80
2022/10/25 11:32:55;;;;;;;7.57;5.00;;;16.60;1.00;;;;;;5023636;28;20241;-79
2022/10/25 11:35:39;;;;;;;6.93;4.10;;;16.70;1.00;;;;;;5037472;28;20207;-79
2022/10/25 11:38:25;;;;;;;6.80;4.70;;;16.80;1.00;;;;;;5037813;28;20178;-79
2022/10/25 11:41:15;;;;;;;4.70;3.50;;;16.80;1.00;;;;;;5039217;28;20191;-79
2022/10/25 11:44:18;;;;;;;4.43;3.22;;;16.70;1.00;;;;;;5040597;28;20185;-79
2022/10/25 11:47:08;;;;;;;5.97;3.78;;;16.50;1.00;;;;;;5040463;28;20190;-80
2022/10/25 11:49:39;;;;;;;9.10;5.57;;;16.40;1.00;;;;;;5054865;28;20178;-79
2022/10/25 11:52:39;;;;;;;4.88;2.80;;;16.50;1.00;;;;;;5034626;28;20214;-79
2022/10/25 11:55:34;;;;;;;6.85;2.78;;;16.50;1.00;;;;;;5035629;28;20199;-79
2022/10/25 11:58:33;;;;;;;4.45;2.72;;;16.50;1.00;;;;;;5043069;28;20297;-79
2022/10/25 12:01:17;;;;;;;5.50;2.67;;;16.50;1.00;;;;;;4999846;28;20607;-79
2022/10/25 12:04:20;;;;;;;3.85;2.58;;;16.40;1.00;;;;;;5027004;28;20179;-80
2022/10/25 12:07:09;;;;;;;3.05;2.00;;;16.40;1.00;;;;;;5031744;28;20211;-80
2022/10/25 12:09:50;;;;;;;4.90;2.70;;;16.40;1.00;;;;;;5032025;28;20803;-80
2022/10/25 12:12:21;;;;;;;4.47;2.28;;;16.20;1.00;;;;;;5026564;28;20274;-79
2022/10/25 12:14:53;;;;;;;5.03;2.28;;;16.10;1.00;;;;;;5029656;28;20199;-79
2022/10/25 12:17:27;;;;;;;4.78;2.60;;;16.00;1.00;;;;;;5032356;28;20201;-80
2022/10/25 12:19:59;;;;;;;6.18;2.78;;;15.90;1.00;;;;;;5015181;28;20179;-79
2022/10/25 12:22:32;;;;;;;5.28;2.70;;;15.80;1.00;;;;;;5031775;28;20666;-80
2022/10/25 12:25:21;;;;;;;5.22;2.35;;;15.80;1.00;;;;;;5035631;28;20221;-79
2022/10/25 12:27:54;;;;;;;4.20;2.88;;;15.80;1.00;;;;;;5031684;28;20202;-79
2022/10/25 12:30:20;;;;;;;5.75;2.70;;;15.90;1.00;;;;;;5030669;28;20186;-79
2022/10/25 12:32:59;;;;;;;4.22;2.78;;;15.90;1.00;;;;;;5035357;28;20189;-80
2022/10/25 12:35:29;;;;;;;4.68;2.83;;;16.00;1.00;;;;;;5029627;28;20206;-79
2022/10/25 12:37:58;;;;;;;4.55;2.88;;;16.10;1.00;;;;;;5031437;28;20217;-79
2022/10/25 12:40:25;;;;;;;5.28;2.72;;;16.30;1.00;;;;;;5033251;28;20207;-79
2022/10/25 12:42:56;;;;;;;4.43;2.67;;;16.30;1.00;;;;;;5029552;28;20650;-80
2022/10/25 12:45:32;;;;;;;5.25;2.90;;;16.30;1.00;;;;;;5024589;28;20636;-80
2022/10/25 12:48:33;;;;;;;3.65;2.50;;;16.10;1.00;;;;;;5035306;28;20209;-80
2022/10/25 12:51:05;;;;;;;4.55;2.30;;;16.10;1.00;;;;;;5038303;28;20185;-78
2022/10/25 12:53:51;;;;;;;4.55;2.53;;;16.00;1.00;;;;;;5034180;28;20265;-79
2022/10/25 12:56:48;;;;;;;7.28;2.40;;;16.00;1.00;;;;;;5050952;28;21416;-79
2022/10/25 12:59:42;;;;;;;5.13;2.60;;;15.90;1.00;;;;;;5032184;28;20236;-86
2022/10/25 13:02:26;;;;;;;4.30;2.40;;;15.90;1.00;;;;;;5035122;28;20198;-83
2022/10/25 13:04:57;;;;;;;7.32;2.90;;;16.00;1.00;;;;;;5049659;28;20217;-84
2022/10/25 13:07:23;;;;;;;3.33;2.20;;;16.20;1.00;;;;;;5034142;28;20349;-86
2022/10/25 13:09:50;;;;;;;7.13;2.63;;;16.10;1.00;;;;;;5019012;28;20244;-85
2022/10/25 13:12:22;;;;;;;7.82;2.67;;;16.10;1.00;;;;;;5033917;28;20186;-85
2022/10/25 13:14:54;;;;;;;5.22;2.20;;;16.20;1.00;;;;;;5033433;28;20726;-86